createdAt,value
2023-03-13T00:01:29.349Z,6.20
2023-03-13T00:03:56.648Z,9.10
2023-03-13T00:06:31.702Z,8.70
2023-03-13T00:09:02.262Z,6.60
2023-03-13T00:11:29.796Z,6.40
2023-03-13T00:14:02.339Z,6.10
2023-03-13T00:16:34.903Z,7.30
2023-03-13T00:19:04.560Z,7.40
2023-03-13T00:21:31.969Z,7.40
2023-03-13T00:26:31.908Z,12.60
2023-03-13T00:29:00.045Z,10.80
2023-03-13T00:31:33.901Z,8.20
2023-03-13T00:34:03.718Z,8.40
2023-03-13T00:36:33.904Z,9.20
2023-03-13T00:39:07.569Z,9.50
2023-03-13T00:41:36.252Z,13.10
2023-03-13T00:44:03.951Z,11.60
2023-03-13T00:46:31.587Z,20.00
2023-03-13T00:48:58.694Z,8.80
2023-03-13T00:51:26.684Z,13.30
2023-03-13T00:53:56.088Z,9.70
2023-03-13T00:56:24.149Z,11.50
2023-03-13T00:58:51.318Z,13.50
2023-03-13T01:01:21.215Z,16.10
2023-03-13T01:03:51.559Z,10.20
2023-03-13T01:06:22.294Z,13.10
2023-03-13T01:08:49.885Z,12.50
2023-03-13T01:11:20.108Z,11.80
2023-03-13T01:13:48.728Z,15.90
2023-03-13T01:16:18.375Z,18.10
2023-03-13T01:18:52.995Z,12.80
2023-03-13T01:21:21.878Z,12.20
2023-03-13T01:23:50.831Z,14.00
2023-03-13T01:26:18.585Z,13.70
2023-03-13T01:31:37.036Z,13.60
2023-03-13T01:34:09.982Z,11.40
2023-03-13T01:36:43.496Z,10.40
2023-03-13T01:39:10.519Z,14.30
2023-03-13T01:41:42.008Z,12.60
2023-03-13T01:44:22.129Z,17.40
2023-03-13T01:46:49.756Z,18.10
2023-03-13T01:49:35.390Z,20.00
2023-03-13T01:52:40.758Z,14.70
2023-03-13T01:55:22.311Z,13.20
2023-03-13T01:57:54.423Z,16.50
2023-03-13T02:00:26.750Z,13.00
2023-03-13T02:03:06.595Z,15.50
2023-03-13T02:05:36.876Z,17.90
2023-03-13T02:08:09.057Z,21.00
2023-03-13T02:10:41.653Z,19.10
2023-03-13T02:13:13.546Z,16.30
2023-03-13T02:15:44.522Z,21.60
2023-03-13T02:18:11.800Z,21.10
2023-03-13T02:20:40.382Z,10.80
2023-03-13T02:23:29.166Z,15.40
2023-03-13T02:25:56.357Z,15.00
2023-03-13T02:28:38.563Z,14.10
2023-03-13T02:31:12.337Z,18.40
2023-03-13T02:33:41.974Z,16.30
2023-03-13T02:36:13.055Z,18.90
2023-03-13T02:39:01.424Z,17.30
2023-03-13T02:41:30.484Z,20.30
2023-03-13T02:43:58.579Z,15.40
2023-03-13T02:46:25.564Z,14.80
2023-03-13T02:48:56.859Z,14.60
2023-03-13T02:51:42.003Z,15.20
2023-03-13T02:54:13.746Z,18.50
2023-03-13T02:59:12.327Z,14.50
2023-03-13T03:01:43.448Z,16.10
2023-03-13T03:04:11.049Z,20.00
2023-03-13T03:09:10.408Z,16.90
2023-03-13T03:11:38.117Z,15.10
2023-03-13T03:14:08.399Z,27.50
2023-03-13T03:16:39.348Z,15.70
2023-03-13T03:19:08.324Z,18.90
2023-03-13T03:21:35.308Z,21.30
2023-03-13T03:24:03.164Z,19.50
2023-03-13T03:26:31.672Z,17.00
2023-03-13T03:28:58.766Z,17.80
2023-03-13T03:31:26.633Z,19.20
2023-03-13T03:33:56.505Z,18.60
2023-03-13T03:36:23.841Z,19.30
2023-03-13T03:38:52.015Z,17.30
2023-03-13T03:41:21.733Z,15.70
2023-03-13T03:43:48.979Z,20.70
2023-03-13T03:46:18.062Z,16.50
2023-03-13T03:48:46.262Z,19.60
2023-03-13T03:51:14.103Z,18.60
2023-03-13T03:53:45.838Z,20.80
2023-03-13T03:56:13.473Z,30.40
2023-03-13T03:58:44.913Z,21.20
2023-03-13T04:01:19.180Z,22.20
2023-03-13T04:03:47.811Z,20.50
2023-03-13T04:06:15.092Z,20.30
2023-03-13T04:08:42.433Z,17.40
2023-03-13T04:11:14.804Z,22.50
2023-03-13T04:13:46.793Z,19.30
2023-03-13T04:16:14.074Z,19.40
2023-03-13T04:18:43.100Z,22.10
2023-03-13T04:21:11.290Z,18.00
2023-03-13T04:23:43.467Z,21.00
2023-03-13T04:26:10.785Z,16.30
2023-03-13T04:28:39.089Z,20.70
2023-03-13T04:31:08.196Z,16.20
2023-03-13T04:33:55.987Z,17.30
2023-03-13T04:36:55.359Z,26.00
2023-03-13T04:39:41.557Z,13.30
2023-03-13T04:42:21.728Z,18.80
2023-03-13T04:45:12.384Z,15.50
2023-03-13T04:47:40.876Z,20.70
2023-03-13T04:50:27.735Z,14.50
2023-03-13T04:53:18.863Z,15.90
2023-03-13T04:55:55.076Z,13.90
2023-03-13T04:58:51.856Z,17.30
2023-03-13T05:01:39.352Z,19.20
2023-03-13T05:04:10.788Z,17.00
2023-03-13T05:07:01.259Z,23.30
2023-03-13T05:10:00.456Z,21.00
2023-03-13T05:12:43.361Z,9.00
2023-03-13T05:15:40.215Z,14.80
2023-03-13T05:18:34.160Z,15.90
2023-03-13T05:21:17.896Z,8.70
2023-03-13T05:24:23.439Z,13.70
2023-03-13T05:27:07.240Z,12.20
2023-03-13T05:29:46.656Z,12.50
2023-03-13T05:32:46.299Z,9.40
2023-03-13T05:35:24.452Z,13.20
2023-03-13T05:38:17.811Z,11.70
2023-03-13T05:41:04.479Z,13.20
2023-03-13T05:43:54.580Z,10.10
2023-03-13T05:46:37.055Z,8.60
2023-03-13T05:49:36.560Z,7.90
2023-03-13T05:52:39.611Z,8.40
2023-03-13T05:55:29.761Z,8.10
2023-03-13T05:58:04.071Z,7.30
2023-03-13T06:00:51.416Z,15.10
2023-03-13T06:03:38.244Z,11.50
2023-03-13T06:06:06.067Z,7.60
2023-03-13T06:08:39.422Z,7.70
2023-03-13T06:11:07.335Z,4.90
2023-03-13T06:13:34.261Z,4.40
2023-03-13T06:16:10.677Z,4.90
2023-03-13T06:18:44.559Z,6.40
2023-03-13T06:21:11.652Z,4.50
2023-03-13T06:23:38.875Z,9.60
2023-03-13T06:26:06.183Z,7.40
2023-03-13T06:28:38.373Z,5.20
2023-03-13T06:31:07.385Z,4.50
2023-03-13T06:33:34.514Z,4.80
2023-03-13T06:36:03.222Z,8.70
2023-03-13T06:38:30.428Z,7.80
2023-03-13T06:40:57.755Z,7.60
2023-03-13T06:43:25.301Z,4.50
2023-03-13T06:45:52.428Z,3.80
2023-03-13T06:48:20.984Z,3.60
2023-03-13T06:50:48.628Z,10.00
2023-03-13T06:53:19.819Z,8.20
2023-03-13T06:55:48.576Z,3.90
2023-03-13T06:58:31.731Z,6.70
2023-03-13T07:01:09.918Z,3.60
2023-03-13T07:03:37.627Z,5.10
2023-03-13T07:06:05.444Z,8.40
2023-03-13T07:08:32.663Z,9.10
2023-03-13T07:11:09.693Z,4.00
2023-03-13T07:13:37.900Z,3.90
2023-03-13T07:16:10.638Z,3.70
2023-03-13T07:18:41.689Z,3.90
2023-03-13T07:21:10.360Z,4.00
2023-03-13T07:23:37.821Z,4.20
2023-03-13T07:26:09.584Z,8.00
2023-03-13T07:28:38.003Z,5.60
2023-03-13T07:31:13.395Z,3.60
2023-03-13T07:33:40.732Z,9.60
2023-03-13T07:36:10.020Z,4.00
2023-03-13T07:38:37.591Z,4.70
2023-03-13T07:41:04.867Z,4.70
2023-03-13T07:43:33.827Z,7.10
2023-03-13T07:46:02.036Z,26.30
2023-03-13T07:48:36.307Z,3.80
2023-03-13T07:51:05.764Z,3.40
2023-03-13T07:53:33.649Z,5.80
2023-03-13T07:56:03.752Z,3.20
2023-03-13T07:58:33.447Z,3.30
2023-03-13T08:01:00.781Z,5.30
2023-03-13T08:03:29.526Z,3.20
2023-03-13T08:05:59.517Z,11.60
2023-03-13T08:08:29.337Z,7.00
2023-03-13T08:11:06.596Z,2.90
2023-03-13T08:13:35.664Z,3.10
2023-03-13T08:16:03.331Z,3.70
2023-03-13T08:18:34.289Z,3.50
2023-03-13T08:21:11.786Z,2.90
2023-03-13T08:23:39.363Z,3.00
2023-03-13T08:26:07.416Z,11.10
2023-03-13T08:28:37.140Z,3.10
2023-03-13T08:31:11.178Z,11.60
2023-03-13T08:33:44.678Z,4.80
2023-03-13T08:36:12.069Z,5.10
2023-03-13T08:38:46.452Z,3.40
2023-03-13T08:41:17.419Z,10.90
2023-03-13T08:43:44.919Z,2.70
2023-03-13T08:46:12.977Z,5.00
2023-03-13T08:48:40.562Z,5.50
2023-03-13T08:51:10.455Z,3.40
2023-03-13T08:53:41.210Z,2.60
2023-03-13T08:56:15.317Z,7.80
2023-03-13T08:58:43.708Z,2.00
2023-03-13T09:01:13.128Z,2.50
2023-03-13T09:03:43.713Z,2.60
2023-03-13T09:06:12.391Z,3.00
2023-03-13T09:08:40.258Z,6.00
2023-03-13T09:11:18.013Z,3.90
2023-03-13T09:13:50.081Z,3.20
2023-03-13T09:16:19.631Z,2.90
2023-03-13T09:18:46.976Z,6.30
2023-03-13T09:21:18.036Z,3.50
2023-03-13T09:23:47.772Z,1.70
2023-03-13T09:26:16.238Z,2.40
2023-03-13T09:28:44.682Z,1.80
2023-03-13T09:31:13.243Z,1.70
2023-03-13T09:33:46.565Z,2.60
2023-03-13T09:36:14.598Z,2.00
2023-03-13T09:38:41.983Z,6.80
2023-03-13T09:41:17.852Z,3.50
2023-03-13T09:43:47.706Z,2.30
2023-03-13T09:46:23.689Z,9.50
2023-03-13T09:48:58.146Z,9.30
2023-03-13T09:51:34.728Z,3.30
2023-03-13T09:54:04.640Z,2.50
2023-03-13T09:56:40.520Z,3.20
2023-03-13T09:59:31.866Z,4.20
2023-03-13T10:02:01.851Z,1.70
2023-03-13T10:04:33.865Z,1.50
2023-03-13T10:07:02.202Z,2.50
2023-03-13T10:09:32.787Z,3.60
2023-03-13T10:12:05.653Z,2.20
2023-03-13T10:15:04.195Z,2.10
2023-03-13T10:17:40.717Z,3.20
2023-03-13T10:20:22.894Z,3.30
2023-03-13T10:22:59.138Z,1.60
2023-03-13T10:25:34.681Z,2.60
2023-03-13T10:28:02.544Z,3.60
2023-03-13T10:30:35.133Z,4.40
2023-03-13T10:33:07.194Z,3.30
2023-03-13T10:35:38.636Z,3.10
2023-03-13T10:38:11.614Z,1.60
2023-03-13T10:40:43.859Z,1.60
2023-03-13T10:43:22.405Z,4.10
2023-03-13T10:45:49.500Z,6.50
2023-03-13T10:48:22.577Z,1.40
2023-03-13T10:50:52.841Z,6.70
2023-03-13T10:53:29.688Z,2.30
2023-03-13T10:56:13.925Z,2.10
2023-03-13T10:58:44.872Z,5.10
2023-03-13T11:01:31.590Z,2.60
2023-03-13T11:04:20.000Z,2.00
2023-03-13T11:06:54.392Z,14.20
2023-03-13T11:09:27.280Z,5.90
2023-03-13T11:12:01.790Z,2.10
2023-03-13T11:14:29.232Z,3.20
2023-03-13T11:17:24.352Z,11.10
2023-03-13T11:20:23.034Z,4.10
2023-03-13T11:23:20.945Z,1.30
2023-03-13T11:26:07.119Z,2.70
2023-03-13T11:28:42.995Z,4.40
2023-03-13T11:31:19.151Z,3.20
2023-03-13T11:34:05.452Z,9.40
2023-03-13T11:36:34.864Z,1.40
2023-03-13T11:39:52.725Z,11.60
2023-03-13T11:42:20.528Z,10.10
2023-03-13T11:45:00.164Z,4.30
2023-03-13T11:47:34.371Z,4.60
2023-03-13T11:50:23.851Z,7.30
2023-03-13T11:53:00.258Z,6.50
2023-03-13T11:56:06.531Z,3.00
2023-03-13T11:58:45.565Z,2.20
2023-03-13T12:01:15.640Z,3.00
2023-03-13T12:04:01.382Z,1.60
2023-03-13T12:06:31.801Z,8.50
2023-03-13T12:09:11.561Z,1.20
2023-03-13T12:12:04.131Z,1.10
2023-03-13T12:14:52.000Z,5.70
2023-03-13T12:17:31.042Z,1.40
2023-03-13T12:20:08.882Z,2.20
2023-03-13T12:22:42.112Z,1.70
2023-03-13T12:25:18.069Z,3.90
2023-03-13T12:27:50.470Z,1.70
2023-03-13T12:30:45.574Z,3.60
2023-03-13T12:33:24.252Z,3.60
2023-03-13T12:36:10.833Z,1.50
2023-03-13T12:39:06.970Z,1.50
2023-03-13T12:41:43.082Z,3.90
2023-03-13T12:44:19.768Z,1.80
2023-03-13T12:46:58.654Z,1.40
2023-03-13T12:49:47.741Z,1.40
2023-03-13T12:52:36.364Z,3.20
2023-03-13T12:55:20.588Z,8.10
2023-03-13T12:58:06.220Z,3.30
2023-03-13T13:00:36.048Z,2.40
2023-03-13T13:03:35.691Z,5.90
2023-03-13T13:06:05.917Z,3.30
2023-03-13T13:08:51.893Z,3.10
2023-03-13T13:11:34.675Z,9.20
2023-03-13T13:14:18.655Z,1.30
2023-03-13T13:16:52.011Z,4.50
2023-03-13T13:19:25.597Z,10.70
2023-03-13T13:22:30.450Z,3.50
2023-03-13T13:24:59.568Z,4.60
2023-03-13T13:27:33.908Z,12.40
2023-03-13T13:30:19.353Z,20.60
2023-03-13T13:32:50.296Z,6.10
2023-03-13T13:35:23.280Z,4.50
2023-03-13T13:37:51.345Z,4.10
2023-03-13T13:40:23.601Z,4.90
2023-03-13T13:42:53.343Z,5.30
2023-03-13T13:45:22.048Z,1.80
2023-03-13T13:47:50.633Z,2.70
2023-03-13T13:50:23.416Z,6.60
2023-03-13T13:52:51.480Z,4.20
2023-03-13T13:55:21.465Z,10.50
2023-03-13T13:57:49.390Z,3.20
2023-03-13T14:00:21.524Z,2.70
2023-03-13T14:02:53.368Z,19.50
2023-03-13T14:05:29.786Z,4.90
2023-03-13T14:08:04.073Z,3.80
2023-03-13T14:10:48.470Z,2.80
2023-03-13T14:13:18.703Z,1.80
2023-03-13T14:15:54.361Z,5.70
2023-03-13T14:18:30.058Z,4.70
2023-03-13T14:20:58.726Z,3.30
2023-03-13T14:23:46.040Z,15.30
2023-03-13T14:26:28.399Z,5.00
2023-03-13T14:29:02.328Z,19.00
2023-03-13T14:31:38.661Z,10.80
2023-03-13T14:34:08.724Z,6.40
2023-03-13T14:37:15.001Z,3.50
2023-03-13T14:39:48.105Z,6.60
2023-03-13T14:42:17.191Z,7.50
2023-03-13T14:44:46.870Z,9.20
2023-03-13T14:47:26.374Z,8.00
2023-03-13T14:50:14.352Z,8.60
2023-03-13T14:52:52.147Z,21.80
2023-03-13T14:55:22.147Z,8.80
2023-03-13T14:57:59.670Z,2.00
2023-03-13T15:00:29.668Z,33.50
2023-03-13T15:03:19.663Z,15.80
2023-03-13T15:06:07.104Z,3.50
2023-03-13T15:08:37.245Z,2.70
2023-03-13T15:11:54.772Z,4.50
2023-03-13T15:14:41.103Z,7.50
2023-03-13T15:17:18.010Z,3.50
2023-03-13T15:19:50.125Z,9.60
2023-03-13T15:22:19.617Z,10.70
2023-03-13T15:25:05.327Z,10.60
2023-03-13T15:27:35.690Z,14.50
2023-03-13T15:30:03.414Z,8.20
2023-03-13T15:32:39.245Z,7.70
2023-03-13T15:35:25.207Z,7.10
2023-03-13T15:37:52.847Z,13.30
2023-03-13T15:40:20.948Z,6.50
2023-03-13T15:42:48.337Z,12.20
2023-03-13T15:45:19.390Z,30.40
2023-03-13T15:47:48.351Z,46.30
2023-03-13T15:50:18.966Z,40.50
2023-03-13T15:52:46.193Z,112.60
2023-03-13T15:55:17.037Z,126.10
2023-03-13T15:57:49.742Z,112.90
2023-03-13T16:00:26.470Z,98.90
2023-03-13T16:02:53.475Z,73.70
2023-03-13T16:05:20.704Z,116.70
2023-03-13T16:07:47.951Z,185.40
2023-03-13T16:10:19.291Z,123.30
2023-03-13T16:12:48.443Z,49.40
2023-03-13T16:15:16.906Z,46.70
2023-03-13T16:17:44.128Z,49.70
2023-03-13T16:20:20.333Z,20.70
2023-03-13T16:22:49.661Z,144.50
2023-03-13T16:25:17.695Z,374.30
2023-03-13T16:27:45.099Z,434.60
2023-03-13T16:30:35.916Z,656.70
2023-03-13T16:33:03.614Z,376.10
2023-03-13T16:35:31.129Z,687.10
2023-03-13T16:38:02.369Z,468.90
2023-03-13T16:40:32.480Z,264.60
2023-03-13T16:43:00.231Z,112.50
2023-03-13T16:45:27.920Z,45.40
2023-03-13T16:47:54.854Z,27.60
2023-03-13T16:51:00.745Z,41.20
2023-03-13T16:53:27.873Z,158.30
2023-03-13T16:55:55.310Z,232.60
2023-03-13T16:58:23.286Z,297.30
2023-03-13T17:01:04.293Z,140.40
2023-03-13T17:03:33.355Z,83.80
2023-03-13T17:06:00.298Z,58.40
2023-03-13T17:08:28.024Z,82.30
2023-03-13T17:10:55.347Z,80.70
2023-03-13T17:13:23.517Z,48.80
2023-03-13T17:15:53.280Z,47.60
2023-03-13T17:18:20.277Z,29.20
2023-03-13T17:20:47.905Z,33.10
2023-03-13T17:23:15.219Z,56.40
2023-03-13T17:25:42.134Z,41.70
2023-03-13T17:28:13.891Z,40.30
2023-03-13T17:30:40.892Z,47.90
2023-03-13T17:33:07.746Z,52.20
2023-03-13T17:35:35.042Z,65.00
2023-03-13T17:38:02.590Z,54.40
2023-03-13T17:40:34.991Z,59.60
2023-03-13T17:43:03.189Z,54.50
2023-03-13T17:45:30.390Z,74.00
2023-03-13T17:47:57.550Z,69.00
2023-03-13T17:50:26.942Z,82.40
2023-03-13T17:52:54.731Z,79.50
2023-03-13T17:55:22.140Z,61.10
2023-03-13T17:57:49.117Z,58.70
2023-03-13T18:00:34.590Z,54.10
2023-03-13T18:03:01.626Z,58.30
2023-03-13T18:05:29.451Z,50.10
2023-03-13T18:07:56.925Z,62.50
2023-03-13T18:10:29.369Z,51.10
2023-03-13T18:13:00.261Z,58.50
2023-03-13T18:15:27.482Z,71.10
2023-03-13T18:17:55.226Z,64.90
2023-03-13T18:20:27.843Z,55.20
2023-03-13T18:22:58.791Z,48.20
2023-03-13T18:25:29.298Z,55.30
2023-03-13T18:27:56.717Z,52.90
2023-03-13T18:30:29.931Z,55.60
2023-03-13T18:32:56.988Z,49.30
2023-03-13T18:35:23.967Z,62.00
2023-03-13T18:37:52.793Z,48.10
2023-03-13T18:40:26.077Z,41.50
2023-03-13T18:42:57.373Z,42.20
2023-03-13T18:45:26.187Z,80.80
2023-03-13T18:47:53.700Z,92.30
2023-03-13T18:50:25.765Z,84.40
2023-03-13T18:52:57.292Z,86.70
2023-03-13T18:55:27.191Z,89.90
2023-03-13T18:57:55.201Z,92.50
2023-03-13T19:00:28.178Z,102.30
2023-03-13T19:02:55.567Z,117.10
2023-03-13T19:05:23.426Z,130.80
2023-03-13T19:07:52.281Z,134.60
2023-03-13T19:10:29.658Z,147.00
2023-03-13T19:12:57.697Z,148.40
2023-03-13T19:15:28.416Z,131.60
2023-03-13T19:17:59.324Z,158.50
2023-03-13T19:20:27.317Z,182.50
2023-03-13T19:22:57.554Z,228.80
2023-03-13T19:25:24.759Z,143.30
2023-03-13T19:27:51.691Z,171.90
2023-03-13T19:30:21.888Z,150.00
2023-03-13T19:32:49.910Z,142.30
2023-03-13T19:35:18.355Z,131.00
2023-03-13T19:37:45.645Z,151.20
2023-03-13T19:40:25.224Z,150.00
2023-03-13T19:42:52.534Z,128.30
2023-03-13T19:45:21.394Z,127.90
2023-03-13T19:47:49.569Z,121.80
2023-03-13T19:50:21.919Z,108.30
2023-03-13T19:52:49.000Z,113.60
2023-03-13T19:55:16.249Z,99.00
2023-03-13T19:57:44.166Z,96.20
2023-03-13T20:00:19.846Z,86.70
2023-03-13T20:02:46.899Z,89.40
2023-03-13T20:05:14.246Z,93.70
2023-03-13T20:07:41.178Z,96.70
2023-03-13T20:10:08.686Z,84.50
2023-03-13T20:12:35.707Z,88.10
2023-03-13T20:15:04.532Z,90.00
2023-03-13T20:17:32.358Z,101.20
2023-03-13T20:19:59.437Z,111.00
2023-03-13T20:22:26.368Z,88.70
2023-03-13T20:24:55.310Z,89.70
2023-03-13T20:27:22.289Z,95.80
2023-03-13T20:29:49.373Z,97.70
2023-03-13T20:32:16.557Z,88.60
2023-03-13T20:34:43.451Z,84.70
2023-03-13T20:37:12.096Z,88.90
2023-03-13T20:39:42.191Z,84.90
2023-03-13T20:42:09.460Z,80.40
2023-03-13T20:44:36.454Z,86.40
2023-03-13T20:47:03.724Z,91.40
2023-03-13T20:49:30.704Z,81.60
2023-03-13T20:51:57.744Z,84.80
2023-03-13T20:54:25.515Z,77.70
2023-03-13T20:56:52.658Z,85.40
2023-03-13T20:59:20.137Z,78.50
2023-03-13T21:01:47.373Z,63.90
2023-03-13T21:04:16.702Z,67.40
2023-03-13T21:06:44.103Z,74.40
2023-03-13T21:09:11.069Z,67.40
2023-03-13T21:11:39.385Z,54.80
2023-03-13T21:14:07.382Z,61.20
2023-03-13T21:16:40.616Z,57.90
2023-03-13T21:19:07.764Z,53.20
2023-03-13T21:21:35.152Z,55.40
2023-03-13T21:24:06.480Z,55.90
2023-03-13T21:26:34.330Z,63.30
2023-03-13T21:29:01.873Z,63.20
2023-03-13T21:31:29.613Z,49.20
2023-03-13T21:33:56.639Z,43.30
2023-03-13T21:36:24.716Z,45.00
2023-03-13T21:38:51.993Z,39.60
2023-03-13T21:41:24.010Z,40.60
2023-03-13T21:43:51.546Z,44.40
2023-03-13T21:46:20.300Z,43.90
2023-03-13T21:48:52.049Z,48.40
2023-03-13T21:51:19.591Z,59.10
2023-03-13T21:53:49.862Z,56.30
2023-03-13T21:56:17.482Z,73.40
2023-03-13T21:58:45.085Z,95.30
2023-03-13T22:01:13.260Z,102.30
2023-03-13T22:03:40.537Z,90.30
2023-03-13T22:06:17.777Z,93.60
2023-03-13T22:08:50.513Z,99.10
2023-03-13T22:11:21.233Z,84.60
2023-03-13T22:13:51.028Z,80.10
2023-03-13T22:16:20.541Z,81.40
2023-03-13T22:18:52.088Z,81.70
2023-03-13T22:21:19.330Z,84.50
2023-03-13T22:23:46.399Z,77.10
2023-03-13T22:26:14.374Z,73.90
2023-03-13T22:28:42.577Z,57.20
2023-03-13T22:31:11.036Z,58.40
2023-03-13T22:33:38.229Z,56.90
2023-03-13T22:36:05.767Z,60.30
2023-03-13T22:38:38.273Z,67.90
2023-03-13T22:41:08.387Z,65.30
2023-03-13T22:43:35.432Z,67.80
2023-03-13T22:46:04.230Z,59.60
2023-03-13T22:48:31.513Z,51.90
2023-03-13T22:51:07.304Z,50.20
2023-03-13T22:53:36.948Z,39.40
2023-03-13T22:56:09.718Z,48.10
2023-03-13T22:58:40.109Z,44.50
2023-03-13T23:01:12.759Z,46.40
2023-03-13T23:03:40.636Z,52.30
2023-03-13T23:06:11.071Z,56.00
2023-03-13T23:08:38.986Z,55.40
2023-03-13T23:11:07.077Z,53.30
2023-03-13T23:13:41.720Z,48.60
2023-03-13T23:16:12.338Z,36.80
2023-03-13T23:18:41.069Z,32.80
2023-03-13T23:21:11.681Z,32.00
2023-03-13T23:23:40.304Z,24.10
2023-03-13T23:26:09.980Z,24.50
2023-03-13T23:28:37.791Z,31.70
2023-03-13T23:31:11.278Z,21.00
2023-03-13T23:33:39.951Z,24.20
2023-03-13T23:36:15.599Z,31.60
2023-03-13T23:38:43.392Z,29.70
2023-03-13T23:41:12.909Z,25.70
2023-03-13T23:43:40.834Z,24.40
2023-03-13T23:46:20.525Z,51.20
2023-03-13T23:48:48.023Z,28.70
2023-03-13T23:51:15.000Z,21.00
2023-03-13T23:53:43.541Z,24.40
2023-03-13T23:56:11.427Z,30.40
2023-03-13T23:58:39.596Z,40.00
